sensor_id;sensor_type;location;lat;lon;timestamp;temperature;humidity
44767;DHT22;30487;48.716;9.272;2023-02-28T00:02:20;0.70;73.90
44767;DHT22;30487;48.716;9.272;2023-02-28T00:04:45;0.70;74.00
44767;DHT22;30487;48.716;9.272;2023-02-28T00:07:18;0.70;74.20
44767;DHT22;30487;48.716;9.272;2023-02-28T00:09:44;0.70;74.30
44767;DHT22;30487;48.716;9.272;2023-02-28T00:12:09;0.70;74.50
44767;DHT22;30487;48.716;9.272;2023-02-28T00:14:36;0.70;74.60
44767;DHT22;30487;48.716;9.272;2023-02-28T00:17:01;0.70;74.60
44767;DHT22;30487;48.716;9.272;2023-02-28T00:19:27;0.70;74.60
44767;DHT22;30487;48.716;9.272;2023-02-28T00:21:53;0.70;74.70
44767;DHT22;30487;48.716;9.272;2023-02-28T00:24:18;0.60;74.90
44767;DHT22;30487;48.716;9.272;2023-02-28T00:26:44;0.60;75.00
44767;DHT22;30487;48.716;9.272;2023-02-28T00:29:09;0.60;75.10
44767;DHT22;30487;48.716;9.272;2023-02-28T00:31:35;0.60;75.20
44767;DHT22;30487;48.716;9.272;2023-02-28T00:34:01;0.60;75.20
44767;DHT22;30487;48.716;9.272;2023-02-28T00:36:26;0.60;75.40
44767;DHT22;30487;48.716;9.272;2023-02-28T00:38:52;0.60;75.40
44767;DHT22;30487;48.716;9.272;2023-02-28T00:41:18;0.60;75.40
44767;DHT22;30487;48.716;9.272;2023-02-28T00:43:43;0.60;75.50
44767;DHT22;30487;48.716;9.272;2023-02-28T00:46:09;0.50;75.40
44767;DHT22;30487;48.716;9.272;2023-02-28T00:48:35;0.50;75.50
44767;DHT22;30487;48.716;9.272;2023-02-28T00:51:01;0.50;75.90
44767;DHT22;30487;48.716;9.272;2023-02-28T00:53:26;0.50;75.90
44767;DHT22;30487;48.716;9.272;2023-02-28T00:55:52;0.40;75.90
44767;DHT22;30487;48.716;9.272;2023-02-28T00:58:18;0.40;76.20
44767;DHT22;30487;48.716;9.272;2023-02-28T01:00:44;0.40;76.40
44767;DHT22;30487;48.716;9.272;2023-02-28T01:03:15;0.40;76.40
44767;DHT22;30487;48.716;9.272;2023-02-28T01:05:41;0.40;76.40
44767;DHT22;30487;48.716;9.272;2023-02-28T01:08:07;0.40;76.60
44767;DHT22;30487;48.716;9.272;2023-02-28T01:10:32;0.40;76.70
44767;DHT22;30487;48.716;9.272;2023-02-28T01:12:58;0.40;76.80
44767;DHT22;30487;48.716;9.272;2023-02-28T01:15:24;0.40;77.00
44767;DHT22;30487;48.716;9.272;2023-02-28T01:17:49;0.40;77.10
44767;DHT22;30487;48.716;9.272;2023-02-28T01:20:15;0.40;77.10
44767;DHT22;30487;48.716;9.272;2023-02-28T01:22:40;0.40;77.20
44767;DHT22;30487;48.716;9.272;2023-02-28T01:25:06;0.30;77.60
44767;DHT22;30487;48.716;9.272;2023-02-28T01:27:33;0.30;77.80
44767;DHT22;30487;48.716;9.272;2023-02-28T01:29:58;0.30;78.10
44767;DHT22;30487;48.716;9.272;2023-02-28T01:32:24;0.30;78.20
44767;DHT22;30487;48.716;9.272;2023-02-28T01:34:50;0.30;78.40
44767;DHT22;30487;48.716;9.272;2023-02-28T01:37:15;0.30;78.60
44767;DHT22;30487;48.716;9.272;2023-02-28T01:39:41;0.30;78.80
44767;DHT22;30487;48.716;9.272;2023-02-28T01:42:09;0.30;79.00
44767;DHT22;30487;48.716;9.272;2023-02-28T01:47:20;0.30;79.30
44767;DHT22;30487;48.716;9.272;2023-02-28T01:49:46;0.30;79.60
44767;DHT22;30487;48.716;9.272;2023-02-28T01:52:12;0.30;79.70
44767;DHT22;30487;48.716;9.272;2023-02-28T01:54:45;0.30;80.00
44767;DHT22;30487;48.716;9.272;2023-02-28T01:57:16;0.30;80.10
44767;DHT22;30487;48.716;9.272;2023-02-28T01:59:49;0.30;80.40
44767;DHT22;30487;48.716;9.272;2023-02-28T02:02:18;0.30;80.60
44767;DHT22;30487;48.716;9.272;2023-02-28T02:07:54;0.20;80.80
44767;DHT22;30487;48.716;9.272;2023-02-28T02:18:43;0.20;81.80
44767;DHT22;30487;48.716;9.272;2023-02-28T02:27:02;0.20;82.00
44767;DHT22;30487;48.716;9.272;2023-02-28T02:37:40;0.20;82.90
44767;DHT22;30487;48.716;9.272;2023-02-28T02:40:16;0.20;83.20
44767;DHT22;30487;48.716;9.272;2023-02-28T02:45:43;0.20;83.40
44767;DHT22;30487;48.716;9.272;2023-02-28T02:48:13;0.20;83.60
44767;DHT22;30487;48.716;9.272;2023-02-28T02:50:48;0.30;84.00
44767;DHT22;30487;48.716;9.272;2023-02-28T02:53:18;0.30;84.00
44767;DHT22;30487;48.716;9.272;2023-02-28T02:55:48;0.30;84.00
44767;DHT22;30487;48.716;9.272;2023-02-28T02:58:22;0.20;84.30
44767;DHT22;30487;48.716;9.272;2023-02-28T03:00:53;0.20;84.60
44767;DHT22;30487;48.716;9.272;2023-02-28T03:03:19;0.30;84.60
44767;DHT22;30487;48.716;9.272;2023-02-28T03:05:56;0.30;84.70
44767;DHT22;30487;48.716;9.272;2023-02-28T03:08:22;0.30;84.70
44767;DHT22;30487;48.716;9.272;2023-02-28T03:10:52;0.30;85.00
44767;DHT22;30487;48.716;9.272;2023-02-28T03:22:23;0.20;86.00
44767;DHT22;30487;48.716;9.272;2023-02-28T03:27:30;0.20;86.40
44767;DHT22;30487;48.716;9.272;2023-02-28T03:30:12;0.20;86.70
44767;DHT22;30487;48.716;9.272;2023-02-28T03:33:10;0.20;87.40
44767;DHT22;30487;48.716;9.272;2023-02-28T03:35:42;0.20;87.30
44767;DHT22;30487;48.716;9.272;2023-02-28T03:38:22;0.20;87.40
44767;DHT22;30487;48.716;9.272;2023-02-28T03:41:36;0.30;87.70
44767;DHT22;30487;48.716;9.272;2023-02-28T03:43:46;0.30;87.70
44767;DHT22;30487;48.716;9.272;2023-02-28T03:46:18;0.30;87.90
44767;DHT22;30487;48.716;9.272;2023-02-28T03:48:57;0.30;88.10
44767;DHT22;30487;48.716;9.272;2023-02-28T03:51:26;0.30;88.40
44767;DHT22;30487;48.716;9.272;2023-02-28T03:54:04;0.30;88.50
44767;DHT22;30487;48.716;9.272;2023-02-28T03:56:36;0.40;88.60
44767;DHT22;30487;48.716;9.272;2023-02-28T03:59:07;0.40;89.30
44767;DHT22;30487;48.716;9.272;2023-02-28T04:01:39;0.40;89.00
44767;DHT22;30487;48.716;9.272;2023-02-28T04:04:07;0.40;89.10
44767;DHT22;30487;48.716;9.272;2023-02-28T04:06:34;0.40;89.40
44767;DHT22;30487;48.716;9.272;2023-02-28T04:09:00;0.40;89.40
44767;DHT22;30487;48.716;9.272;2023-02-28T04:11:44;0.50;89.50
44767;DHT22;30487;48.716;9.272;2023-02-28T04:14:11;0.50;89.70
44767;DHT22;30487;48.716;9.272;2023-02-28T04:16:39;0.40;89.90
44767;DHT22;30487;48.716;9.272;2023-02-28T04:19:07;0.40;90.00
44767;DHT22;30487;48.716;9.272;2023-02-28T04:21:35;0.40;90.10
44767;DHT22;30487;48.716;9.272;2023-02-28T04:24:01;0.50;90.20
44767;DHT22;30487;48.716;9.272;2023-02-28T04:26:34;0.40;90.30
44767;DHT22;30487;48.716;9.272;2023-02-28T04:29:01;0.40;90.40
44767;DHT22;30487;48.716;9.272;2023-02-28T04:31:27;0.50;90.50
44767;DHT22;30487;48.716;9.272;2023-02-28T04:33:53;0.50;90.60
44767;DHT22;30487;48.716;9.272;2023-02-28T04:36:18;0.50;90.70
44767;DHT22;30487;48.716;9.272;2023-02-28T04:38:45;0.50;90.80
44767;DHT22;30487;48.716;9.272;2023-02-28T04:41:11;0.40;90.90
44767;DHT22;30487;48.716;9.272;2023-02-28T04:43:37;0.40;91.10
44767;DHT22;30487;48.716;9.272;2023-02-28T04:46:04;0.40;91.20
44767;DHT22;30487;48.716;9.272;2023-02-28T04:48:33;0.40;91.30
44767;DHT22;30487;48.716;9.272;2023-02-28T04:51:03;0.40;91.40
44767;DHT22;30487;48.716;9.272;2023-02-28T04:53:29;0.40;91.50
44767;DHT22;30487;48.716;9.272;2023-02-28T04:55:56;0.40;91.60
44767;DHT22;30487;48.716;9.272;2023-02-28T04:58:21;0.40;91.70
44767;DHT22;30487;48.716;9.272;2023-02-28T05:00:50;0.40;91.80
44767;DHT22;30487;48.716;9.272;2023-02-28T05:03:16;0.50;91.90
44767;DHT22;30487;48.716;9.272;2023-02-28T05:05:42;0.50;92.00
44767;DHT22;30487;48.716;9.272;2023-02-28T05:08:07;0.50;92.10
44767;DHT22;30487;48.716;9.272;2023-02-28T05:10:33;0.50;92.10
44767;DHT22;30487;48.716;9.272;2023-02-28T05:12:58;0.50;92.20
44767;DHT22;30487;48.716;9.272;2023-02-28T05:15:24;0.50;92.30
44767;DHT22;30487;48.716;9.272;2023-02-28T05:17:50;0.50;92.40
44767;DHT22;30487;48.716;9.272;2023-02-28T05:20:16;0.60;92.50
44767;DHT22;30487;48.716;9.272;2023-02-28T05:22:42;0.50;92.50
44767;DHT22;30487;48.716;9.272;2023-02-28T05:25:11;0.50;92.60
44767;DHT22;30487;48.716;9.272;2023-02-28T05:27:37;0.50;92.70
44767;DHT22;30487;48.716;9.272;2023-02-28T05:30:04;0.50;92.70
44767;DHT22;30487;48.716;9.272;2023-02-28T05:32:31;0.50;92.80
44767;DHT22;30487;48.716;9.272;2023-02-28T05:34:56;0.60;92.80
44767;DHT22;30487;48.716;9.272;2023-02-28T05:37:22;0.60;93.00
44767;DHT22;30487;48.716;9.272;2023-02-28T05:39:48;0.60;92.90
44767;DHT22;30487;48.716;9.272;2023-02-28T05:42:13;0.60;93.00
44767;DHT22;30487;48.716;9.272;2023-02-28T05:44:39;0.60;93.10
44767;DHT22;30487;48.716;9.272;2023-02-28T05:47:04;0.60;93.10
44767;DHT22;30487;48.716;9.272;2023-02-28T05:49:30;0.60;93.20
44767;DHT22;30487;48.716;9.272;2023-02-28T05:51:55;0.60;93.20
44767;DHT22;30487;48.716;9.272;2023-02-28T05:54:21;0.60;93.20
44767;DHT22;30487;48.716;9.272;2023-02-28T05:56:46;0.60;93.20
44767;DHT22;30487;48.716;9.272;2023-02-28T05:59:13;0.60;93.30
44767;DHT22;30487;48.716;9.272;2023-02-28T06:01:40;0.70;93.40
44767;DHT22;30487;48.716;9.272;2023-02-28T06:04:10;0.70;93.50
44767;DHT22;30487;48.716;9.272;2023-02-28T06:06:36;0.70;93.50
44767;DHT22;30487;48.716;9.272;2023-02-28T06:09:03;0.70;93.60
44767;DHT22;30487;48.716;9.272;2023-02-28T06:11:29;0.70;93.60
44767;DHT22;30487;48.716;9.272;2023-02-28T06:14:00;0.70;93.60
44767;DHT22;30487;48.716;9.272;2023-02-28T06:16:31;0.70;93.60
44767;DHT22;30487;48.716;9.272;2023-02-28T06:19:01;0.70;93.70
44767;DHT22;30487;48.716;9.272;2023-02-28T06:21:27;0.70;93.70
44767;DHT22;30487;48.716;9.272;2023-02-28T06:23:53;0.70;93.80
44767;DHT22;30487;48.716;9.272;2023-02-28T06:26:19;0.70;93.80
44767;DHT22;30487;48.716;9.272;2023-02-28T06:28:45;0.70;93.80
44767;DHT22;30487;48.716;9.272;2023-02-28T06:31:13;0.70;93.90
44767;DHT22;30487;48.716;9.272;2023-02-28T06:33:40;0.70;93.90
44767;DHT22;30487;48.716;9.272;2023-02-28T06:36:07;0.70;93.90
44767;DHT22;30487;48.716;9.272;2023-02-28T06:38:33;0.80;93.90
44767;DHT22;30487;48.716;9.272;2023-02-28T06:41:00;0.80;93.90
44767;DHT22;30487;48.716;9.272;2023-02-28T06:43:28;0.80;93.90
44767;DHT22;30487;48.716;9.272;2023-02-28T06:45:56;0.80;94.20
44767;DHT22;30487;48.716;9.272;2023-02-28T06:48:22;0.90;96.80
44767;DHT22;30487;48.716;9.272;2023-02-28T06:50:47;0.90;97.20
44767;DHT22;30487;48.716;9.272;2023-02-28T06:53:13;1.00;97.80
44767;DHT22;30487;48.716;9.272;2023-02-28T06:55:39;1.10;97.10
44767;DHT22;30487;48.716;9.272;2023-02-28T06:58:05;1.10;96.40
44767;DHT22;30487;48.716;9.272;2023-02-28T07:00:44;1.10;95.90
44767;DHT22;30487;48.716;9.272;2023-02-28T07:03:10;1.00;95.40
44767;DHT22;30487;48.716;9.272;2023-02-28T07:05:37;1.00;95.10
44767;DHT22;30487;48.716;9.272;2023-02-28T07:08:03;1.00;94.90
44767;DHT22;30487;48.716;9.272;2023-02-28T07:10:30;1.00;94.80
44767;DHT22;30487;48.716;9.272;2023-02-28T07:12:55;1.00;94.70
44767;DHT22;30487;48.716;9.272;2023-02-28T07:15:21;1.00;94.60
44767;DHT22;30487;48.716;9.272;2023-02-28T07:17:47;1.00;94.50
44767;DHT22;30487;48.716;9.272;2023-02-28T07:20:12;1.00;94.40
44767;DHT22;30487;48.716;9.272;2023-02-28T07:22:38;1.00;94.40
44767;DHT22;30487;48.716;9.272;2023-02-28T07:25:04;1.00;94.40
44767;DHT22;30487;48.716;9.272;2023-02-28T07:27:30;1.00;94.30
44767;DHT22;30487;48.716;9.272;2023-02-28T07:29:56;1.00;94.20
44767;DHT22;30487;48.716;9.272;2023-02-28T07:32:22;1.00;94.20
44767;DHT22;30487;48.716;9.272;2023-02-28T07:34:47;1.00;94.20
44767;DHT22;30487;48.716;9.272;2023-02-28T07:37:14;1.00;94.20
44767;DHT22;30487;48.716;9.272;2023-02-28T07:39:40;1.00;94.20
44767;DHT22;30487;48.716;9.272;2023-02-28T07:42:09;1.00;94.20
44767;DHT22;30487;48.716;9.272;2023-02-28T07:44:38;1.00;94.20
44767;DHT22;30487;48.716;9.272;2023-02-28T07:47:09;1.00;94.20
44767;DHT22;30487;48.716;9.272;2023-02-28T07:49:38;1.00;94.30
44767;DHT22;30487;48.716;9.272;2023-02-28T07:52:07;1.00;94.20
44767;DHT22;30487;48.716;9.272;2023-02-28T07:54:33;1.00;94.20
44767;DHT22;30487;48.716;9.272;2023-02-28T07:56:59;1.10;94.20
44767;DHT22;30487;48.716;9.272;2023-02-28T07:59:24;1.10;94.10
44767;DHT22;30487;48.716;9.272;2023-02-28T08:01:50;1.20;94.10
44767;DHT22;30487;48.716;9.272;2023-02-28T08:04:17;1.20;94.10
44767;DHT22;30487;48.716;9.272;2023-02-28T08:06:43;1.10;94.00
44767;DHT22;30487;48.716;9.272;2023-02-28T08:09:08;1.20;94.10
44767;DHT22;30487;48.716;9.272;2023-02-28T08:11:34;1.20;94.10
44767;DHT22;30487;48.716;9.272;2023-02-28T08:14:00;1.20;94.20
44767;DHT22;30487;48.716;9.272;2023-02-28T08:16:25;1.20;94.40
44767;DHT22;30487;48.716;9.272;2023-02-28T08:18:51;1.40;95.50
44767;DHT22;30487;48.716;9.272;2023-02-28T08:21:17;1.40;95.40
44767;DHT22;30487;48.716;9.272;2023-02-28T08:23:43;1.40;94.90
44767;DHT22;30487;48.716;9.272;2023-02-28T08:26:11;1.40;94.50
44767;DHT22;30487;48.716;9.272;2023-02-28T08:28:36;1.40;94.30
44767;DHT22;30487;48.716;9.272;2023-02-28T08:31:08;1.40;94.20
44767;DHT22;30487;48.716;9.272;2023-02-28T08:33:34;1.50;94.00
44767;DHT22;30487;48.716;9.272;2023-02-28T08:36:00;1.50;94.00
44767;DHT22;30487;48.716;9.272;2023-02-28T08:38:25;1.50;94.00
44767;DHT22;30487;48.716;9.272;2023-02-28T08:41:01;1.50;93.90
44767;DHT22;30487;48.716;9.272;2023-02-28T08:43:27;1.50;93.80
44767;DHT22;30487;48.716;9.272;2023-02-28T08:45:54;1.50;93.70
44767;DHT22;30487;48.716;9.272;2023-02-28T08:48:24;1.60;93.80
44767;DHT22;30487;48.716;9.272;2023-02-28T08:51:01;1.60;93.70
44767;DHT22;30487;48.716;9.272;2023-02-28T08:53:27;1.60;93.60
44767;DHT22;30487;48.716;9.272;2023-02-28T08:56:00;1.60;93.60
44767;DHT22;30487;48.716;9.272;2023-02-28T08:58:26;1.60;93.60
44767;DHT22;30487;48.716;9.272;2023-02-28T09:00:53;1.60;93.60
44767;DHT22;30487;48.716;9.272;2023-02-28T09:03:19;1.50;93.50
44767;DHT22;30487;48.716;9.272;2023-02-28T09:05:59;1.60;93.50
44767;DHT22;30487;48.716;9.272;2023-02-28T09:08:26;1.60;93.50
44767;DHT22;30487;48.716;9.272;2023-02-28T09:10:53;1.70;93.50
44767;DHT22;30487;48.716;9.272;2023-02-28T09:13:20;1.70;93.40
44767;DHT22;30487;48.716;9.272;2023-02-28T09:15:45;1.70;93.40
44767;DHT22;30487;48.716;9.272;2023-02-28T09:18:11;1.80;93.30
44767;DHT22;30487;48.716;9.272;2023-02-28T09:20:38;1.80;93.20
44767;DHT22;30487;48.716;9.272;2023-02-28T09:23:05;1.90;93.20
44767;DHT22;30487;48.716;9.272;2023-02-28T09:25:31;1.90;93.20
44767;DHT22;30487;48.716;9.272;2023-02-28T09:27:57;1.90;93.20
44767;DHT22;30487;48.716;9.272;2023-02-28T09:30:22;2.00;93.20
44767;DHT22;30487;48.716;9.272;2023-02-28T09:32:48;2.00;93.20
44767;DHT22;30487;48.716;9.272;2023-02-28T09:35:24;2.10;93.00
44767;DHT22;30487;48.716;9.272;2023-02-28T09:37:52;2.10;93.00
44767;DHT22;30487;48.716;9.272;2023-02-28T09:40:22;2.10;92.90
44767;DHT22;30487;48.716;9.272;2023-02-28T09:42:51;2.10;92.80
44767;DHT22;30487;48.716;9.272;2023-02-28T09:45:48;2.20;92.80
44767;DHT22;30487;48.716;9.272;2023-02-28T09:48:18;2.20;92.70
44767;DHT22;30487;48.716;9.272;2023-02-28T09:50:55;2.20;92.70
44767;DHT22;30487;48.716;9.272;2023-02-28T09:53:33;2.30;92.70
44767;DHT22;30487;48.716;9.272;2023-02-28T09:56:07;2.40;92.50
44767;DHT22;30487;48.716;9.272;2023-02-28T09:59:18;2.50;92.20
44767;DHT22;30487;48.716;9.272;2023-02-28T10:04:58;2.60;91.40
44767;DHT22;30487;48.716;9.272;2023-02-28T10:07:39;2.70;90.80
44767;DHT22;30487;48.716;9.272;2023-02-28T10:10:37;2.70;90.70
44767;DHT22;30487;48.716;9.272;2023-02-28T10:13:22;2.70;90.60
44767;DHT22;30487;48.716;9.272;2023-02-28T10:15:52;2.60;90.60
44767;DHT22;30487;48.716;9.272;2023-02-28T10:18:24;2.70;90.90
44767;DHT22;30487;48.716;9.272;2023-02-28T10:20:51;2.80;90.40
44767;DHT22;30487;48.716;9.272;2023-02-28T10:23:34;2.90;90.10
44767;DHT22;30487;48.716;9.272;2023-02-28T10:26:09;2.90;90.70
44767;DHT22;30487;48.716;9.272;2023-02-28T10:28:36;3.00;90.60
44767;DHT22;30487;48.716;9.272;2023-02-28T10:31:02;3.00;90.50
44767;DHT22;30487;48.716;9.272;2023-02-28T10:33:31;3.10;90.30
44767;DHT22;30487;48.716;9.272;2023-02-28T10:35:57;3.10;90.00
44767;DHT22;30487;48.716;9.272;2023-02-28T10:38:31;3.20;89.80
44767;DHT22;30487;48.716;9.272;2023-02-28T10:41:28;3.20;89.30
44767;DHT22;30487;48.716;9.272;2023-02-28T10:44:17;3.50;89.10
44767;DHT22;30487;48.716;9.272;2023-02-28T10:46:45;4.00;88.60
44767;DHT22;30487;48.716;9.272;2023-02-28T10:49:27;4.40;87.50
44767;DHT22;30487;48.716;9.272;2023-02-28T10:51:59;4.70;85.50
44767;DHT22;30487;48.716;9.272;2023-02-28T10:54:34;4.90;85.30
44767;DHT22;30487;48.716;9.272;2023-02-28T10:57:17;5.30;84.30
44767;DHT22;30487;48.716;9.272;2023-02-28T10:59:43;5.90;83.30
44767;DHT22;30487;48.716;9.272;2023-02-28T11:04:54;6.90;78.80
44767;DHT22;30487;48.716;9.272;2023-02-28T11:07:20;7.10;77.30
44767;DHT22;30487;48.716;9.272;2023-02-28T11:09:50;7.50;82.20
44767;DHT22;30487;48.716;9.272;2023-02-28T11:12:26;7.90;81.00
44767;DHT22;30487;48.716;9.272;2023-02-28T11:15:00;8.60;78.30
44767;DHT22;30487;48.716;9.272;2023-02-28T11:17:29;8.70;75.70
44767;DHT22;30487;48.716;9.272;2023-02-28T11:20:07;8.80;72.90
44767;DHT22;30487;48.716;9.272;2023-02-28T11:22:39;9.40;72.30
44767;DHT22;30487;48.716;9.272;2023-02-28T11:25:16;9.80;70.80
44767;DHT22;30487;48.716;9.272;2023-02-28T11:27:59;9.90;68.70
44767;DHT22;30487;48.716;9.272;2023-02-28T11:32:54;10.70;69.60
44767;DHT22;30487;48.716;9.272;2023-02-28T11:35:36;10.70;67.10
44767;DHT22;30487;48.716;9.272;2023-02-28T11:38:07;11.10;67.20
44767;DHT22;30487;48.716;9.272;2023-02-28T11:43:50;12.00;64.80
44767;DHT22;30487;48.716;9.272;2023-02-28T11:51:22;12.50;60.50
44767;DHT22;30487;48.716;9.272;2023-02-28T11:56:40;12.50;60.20
44767;DHT22;30487;48.716;9.272;2023-02-28T12:02:47;12.70;59.90
44767;DHT22;30487;48.716;9.272;2023-02-28T12:05:20;13.10;58.50
44767;DHT22;30487;48.716;9.272;2023-02-28T12:10:57;13.40;58.30
44767;DHT22;30487;48.716;9.272;2023-02-28T12:16:16;14.20;56.90
44767;DHT22;30487;48.716;9.272;2023-02-28T12:27:14;12.70;56.40
44767;DHT22;30487;48.716;9.272;2023-02-28T12:29:53;12.20;56.70
44767;DHT22;30487;48.716;9.272;2023-02-28T12:32:39;12.00;57.40
44767;DHT22;30487;48.716;9.272;2023-02-28T12:37:52;12.80;56.90
44767;DHT22;30487;48.716;9.272;2023-02-28T12:40:23;13.60;56.40
44767;DHT22;30487;48.716;9.272;2023-02-28T12:42:58;13.90;54.90
44767;DHT22;30487;48.716;9.272;2023-02-28T12:48:11;14.60;54.30
44767;DHT22;30487;48.716;9.272;2023-02-28T12:50:40;14.60;53.10
44767;DHT22;30487;48.716;9.272;2023-02-28T12:53:26;14.70;52.90
44767;DHT22;30487;48.716;9.272;2023-02-28T12:56:16;14.70;52.30
44767;DHT22;30487;48.716;9.272;2023-02-28T12:58:54;14.60;52.30
44767;DHT22;30487;48.716;9.272;2023-02-28T13:01:51;14.80;52.80
44767;DHT22;30487;48.716;9.272;2023-02-28T13:04:47;15.00;53.00
44767;DHT22;30487;48.716;9.272;2023-02-28T13:07:36;15.10;52.50
44767;DHT22;30487;48.716;9.272;2023-02-28T13:10:06;15.20;52.70
44767;DHT22;30487;48.716;9.272;2023-02-28T13:12:33;15.30;52.20
44767;DHT22;30487;48.716;9.272;2023-02-28T13:15:25;15.30;52.00
44767;DHT22;30487;48.716;9.272;2023-02-28T13:17:54;14.70;51.60
44767;DHT22;30487;48.716;9.272;2023-02-28T13:20:31;14.30;52.40
44767;DHT22;30487;48.716;9.272;2023-02-28T13:22:58;14.40;53.00
44767;DHT22;30487;48.716;9.272;2023-02-28T13:28:11;15.00;54.40
44767;DHT22;30487;48.716;9.272;2023-02-28T13:35:46;14.90;52.00
44767;DHT22;30487;48.716;9.272;2023-02-28T13:38:17;14.80;52.60
44767;DHT22;30487;48.716;9.272;2023-02-28T13:40:46;14.90;52.10
44767;DHT22;30487;48.716;9.272;2023-02-28T13:43:16;15.00;51.70
44767;DHT22;30487;48.716;9.272;2023-02-28T13:46:10;15.20;51.50
44767;DHT22;30487;48.716;9.272;2023-02-28T13:48:36;15.20;51.30
44767;DHT22;30487;48.716;9.272;2023-02-28T13:51:39;15.10;51.00
44767;DHT22;30487;48.716;9.272;2023-02-28T13:57:24;14.80;51.10
44767;DHT22;30487;48.716;9.272;2023-02-28T14:02:50;14.70;51.80
44767;DHT22;30487;48.716;9.272;2023-02-28T14:05:21;14.70;51.70
44767;DHT22;30487;48.716;9.272;2023-02-28T14:07:53;14.60;55.70
44767;DHT22;30487;48.716;9.272;2023-02-28T14:10:30;14.70;58.80
44767;DHT22;30487;48.716;9.272;2023-02-28T14:21:10;14.10;53.10
44767;DHT22;30487;48.716;9.272;2023-02-28T14:38:21;13.80;52.80
44767;DHT22;30487;48.716;9.272;2023-02-28T14:40:52;13.80;52.70
44767;DHT22;30487;48.716;9.272;2023-02-28T14:43:24;13.90;52.50
44767;DHT22;30487;48.716;9.272;2023-02-28T14:46:01;13.80;52.80
44767;DHT22;30487;48.716;9.272;2023-02-28T14:48:28;13.70;52.60
44767;DHT22;30487;48.716;9.272;2023-02-28T14:50:58;13.70;52.90
44767;DHT22;30487;48.716;9.272;2023-02-28T14:53:30;13.60;53.10
44767;DHT22;30487;48.716;9.272;2023-02-28T14:55:56;13.40;52.80
44767;DHT22;30487;48.716;9.272;2023-02-28T14:58:30;13.40;53.00
44767;DHT22;30487;48.716;9.272;2023-02-28T15:00:58;13.10;53.00
44767;DHT22;30487;48.716;9.272;2023-02-28T15:03:31;13.10;53.20
44767;DHT22;30487;48.716;9.272;2023-02-28T15:05:59;13.10;53.10
44767;DHT22;30487;48.716;9.272;2023-02-28T15:08:26;12.90;53.20
44767;DHT22;30487;48.716;9.272;2023-02-28T15:11:26;12.90;53.50
44767;DHT22;30487;48.716;9.272;2023-02-28T15:13:53;12.80;53.40
44767;DHT22;30487;48.716;9.272;2023-02-28T15:16:29;12.70;53.90
44767;DHT22;30487;48.716;9.272;2023-02-28T15:19:02;12.60;54.00
44767;DHT22;30487;48.716;9.272;2023-02-28T15:21:35;12.40;53.90
44767;DHT22;30487;48.716;9.272;2023-02-28T15:26:40;12.40;54.30
44767;DHT22;30487;48.716;9.272;2023-02-28T15:29:11;12.30;54.20
44767;DHT22;30487;48.716;9.272;2023-02-28T15:31:55;12.10;54.30
44767;DHT22;30487;48.716;9.272;2023-02-28T15:34:28;11.90;54.60
44767;DHT22;30487;48.716;9.272;2023-02-28T15:36:55;11.90;54.70
44767;DHT22;30487;48.716;9.272;2023-02-28T15:39:22;11.80;54.90
44767;DHT22;30487;48.716;9.272;2023-02-28T15:41:48;12.00;60.70
44767;DHT22;30487;48.716;9.272;2023-02-28T15:44:15;12.20;57.70
44767;DHT22;30487;48.716;9.272;2023-02-28T15:46:57;12.20;56.00
44767;DHT22;30487;48.716;9.272;2023-02-28T15:49:23;12.20;55.40
44767;DHT22;30487;48.716;9.272;2023-02-28T15:51:51;12.10;55.70
44767;DHT22;30487;48.716;9.272;2023-02-28T15:54:30;12.00;54.90
44767;DHT22;30487;48.716;9.272;2023-02-28T15:57:00;11.90;55.10
44767;DHT22;30487;48.716;9.272;2023-02-28T15:59:29;11.70;55.20
44767;DHT22;30487;48.716;9.272;2023-02-28T16:04:36;11.60;55.60
44767;DHT22;30487;48.716;9.272;2023-02-28T16:07:04;11.40;56.40
44767;DHT22;30487;48.716;9.272;2023-02-28T16:09:30;11.20;59.40
44767;DHT22;30487;48.716;9.272;2023-02-28T16:12:00;11.10;61.00
44767;DHT22;30487;48.716;9.272;2023-02-28T16:14:27;10.90;58.50
44767;DHT22;30487;48.716;9.272;2023-02-28T16:16:57;10.70;57.80
44767;DHT22;30487;48.716;9.272;2023-02-28T16:19:27;10.50;57.90
44767;DHT22;30487;48.716;9.272;2023-02-28T16:21:53;10.20;58.00
44767;DHT22;30487;48.716;9.272;2023-02-28T16:24:18;10.10;58.10
44767;DHT22;30487;48.716;9.272;2023-02-28T16:26:47;10.00;58.20
44767;DHT22;30487;48.716;9.272;2023-02-28T16:29:32;9.90;58.50
44767;DHT22;30487;48.716;9.272;2023-02-28T16:31:59;9.60;58.80
44767;DHT22;30487;48.716;9.272;2023-02-28T16:34:25;9.50;59.00
44767;DHT22;30487;48.716;9.272;2023-02-28T16:36:51;9.40;59.10
44767;DHT22;30487;48.716;9.272;2023-02-28T16:39:17;9.30;59.40
44767;DHT22;30487;48.716;9.272;2023-02-28T16:41:44;9.20;59.60
44767;DHT22;30487;48.716;9.272;2023-02-28T16:44:29;9.00;59.80
44767;DHT22;30487;48.716;9.272;2023-02-28T16:46:56;9.00;60.20
44767;DHT22;30487;48.716;9.272;2023-02-28T16:49:22;8.80;61.80
44767;DHT22;30487;48.716;9.272;2023-02-28T16:51:47;8.80;62.00
44767;DHT22;30487;48.716;9.272;2023-02-28T16:54:16;8.60;61.50
44767;DHT22;30487;48.716;9.272;2023-02-28T16:56:44;8.40;61.50
44767;DHT22;30487;48.716;9.272;2023-02-28T16:59:11;8.30;61.50
44767;DHT22;30487;48.716;9.272;2023-02-28T17:01:37;8.20;61.80
44767;DHT22;30487;48.716;9.272;2023-02-28T17:04:03;8.00;62.10
44767;DHT22;30487;48.716;9.272;2023-02-28T17:06:29;8.00;66.00
44767;DHT22;30487;48.716;9.272;2023-02-28T17:08:56;7.90;65.30
44767;DHT22;30487;48.716;9.272;2023-02-28T17:11:24;7.70;64.30
44767;DHT22;30487;48.716;9.272;2023-02-28T17:13:49;7.60;63.80
44767;DHT22;30487;48.716;9.272;2023-02-28T17:16:35;7.50;63.60
44767;DHT22;30487;48.716;9.272;2023-02-28T17:19:04;7.30;63.70
44767;DHT22;30487;48.716;9.272;2023-02-28T17:21:31;7.10;64.00
44767;DHT22;30487;48.716;9.272;2023-02-28T17:23:57;7.10;64.30
44767;DHT22;30487;48.716;9.272;2023-02-28T17:26:23;6.90;64.50
44767;DHT22;30487;48.716;9.272;2023-02-28T17:28:54;6.80;64.60
44767;DHT22;30487;48.716;9.272;2023-02-28T17:31:21;6.80;65.10
44767;DHT22;30487;48.716;9.272;2023-02-28T17:33:47;6.60;65.10
44767;DHT22;30487;48.716;9.272;2023-02-28T17:36:15;6.50;65.30
44767;DHT22;30487;48.716;9.272;2023-02-28T17:38:40;6.50;65.70
44767;DHT22;30487;48.716;9.272;2023-02-28T17:41:09;6.40;66.50
44767;DHT22;30487;48.716;9.272;2023-02-28T17:43:35;6.40;68.40
44767;DHT22;30487;48.716;9.272;2023-02-28T17:46:00;6.30;67.60
44767;DHT22;30487;48.716;9.272;2023-02-28T17:48:26;6.20;67.50
44767;DHT22;30487;48.716;9.272;2023-02-28T17:50:53;6.20;69.10
44767;DHT22;30487;48.716;9.272;2023-02-28T17:53:19;6.20;68.40
44767;DHT22;30487;48.716;9.272;2023-02-28T17:55:51;6.00;67.80
44767;DHT22;30487;48.716;9.272;2023-02-28T17:58:16;6.00;67.60
44767;DHT22;30487;48.716;9.272;2023-02-28T18:00:44;5.90;67.50
44767;DHT22;30487;48.716;9.272;2023-02-28T18:03:09;5.80;67.60
44767;DHT22;30487;48.716;9.272;2023-02-28T18:05:36;5.80;67.90
44767;DHT22;30487;48.716;9.272;2023-02-28T18:08:02;5.70;67.90